createdAt,value
2018-02-27T00:00:25.531Z,64.90
2018-02-27T00:02:53.079Z,65.70
2018-02-27T00:05:20.653Z,65.50
2018-02-27T00:07:48.207Z,65.70
2018-02-27T00:10:15.768Z,65.80
2018-02-27T00:12:43.343Z,66.10
2018-02-27T00:15:10.898Z,66.70
2018-02-27T00:17:38.474Z,66.60
2018-02-27T00:20:06.015Z,66.50
2018-02-27T00:22:33.562Z,66.30
2018-02-27T00:25:01.128Z,67.20
2018-02-27T00:27:28.675Z,66.60
2018-02-27T00:29:56.245Z,67.10
2018-02-27T00:32:23.790Z,67.20
2018-02-27T00:34:51.365Z,67.50
2018-02-27T00:37:18.916Z,67.30
2018-02-27T00:39:46.464Z,67.30
2018-02-27T00:42:14.032Z,67.70
2018-02-27T00:44:41.588Z,67.60
2018-02-27T00:47:09.170Z,68.60
2018-02-27T00:49:36.913Z,68.00
2018-02-27T00:52:04.455Z,68.20
2018-02-27T00:54:32.043Z,69.20
2018-02-27T00:56:59.584Z,69.50
2018-02-27T00:59:27.127Z,69.10
2018-02-27T01:01:54.692Z,69.60
2018-02-27T01:04:22.236Z,70.20
2018-02-27T01:06:51.484Z,69.30
2018-02-27T01:09:19.055Z,69.40
2018-02-27T01:11:46.602Z,70.10
2018-02-27T01:14:14.166Z,70.00
2018-02-27T01:16:42.482Z,70.10
2018-02-27T01:19:10.832Z,70.10
2018-02-27T01:21:38.395Z,70.00
2018-02-27T01:24:05.953Z,70.10
2018-02-27T01:26:33.530Z,69.60
2018-02-27T01:29:01.087Z,70.00
2018-02-27T01:31:28.639Z,69.70
2018-02-27T01:33:56.245Z,69.90
2018-02-27T01:36:23.794Z,69.90
2018-02-27T01:38:51.364Z,69.40
2018-02-27T01:41:18.928Z,69.50
2018-02-27T01:43:46.475Z,70.00
2018-02-27T01:46:14.818Z,69.70
2018-02-27T01:48:42.380Z,69.60
2018-02-27T01:51:14.858Z,69.60
2018-02-27T01:53:42.422Z,69.80
2018-02-27T01:56:09.981Z,69.70
2018-02-27T01:58:37.559Z,70.40
2018-02-27T02:01:05.879Z,70.60
2018-02-27T02:03:33.439Z,70.50
2018-02-27T02:06:01.033Z,70.20
2018-02-27T02:08:28.586Z,69.80
2018-02-27T02:10:56.145Z,70.20
2018-02-27T02:13:29.652Z,70.60
2018-02-27T02:15:58.016Z,71.10
2018-02-27T02:18:25.570Z,70.50
2018-02-27T02:20:53.153Z,70.40
2018-02-27T02:23:20.712Z,69.80
2018-02-27T02:25:48.267Z,70.30
2018-02-27T02:28:15.887Z,69.90
2018-02-27T02:30:43.440Z,69.40
2018-02-27T02:33:10.991Z,69.50
2018-02-27T02:35:38.576Z,69.30
2018-02-27T02:38:06.203Z,69.60
2018-02-27T02:40:33.727Z,69.50
2018-02-27T02:43:01.317Z,69.90
2018-02-27T02:45:29.636Z,69.70
2018-02-27T02:47:57.202Z,69.60
2018-02-27T02:50:24.788Z,69.50
2018-02-27T02:52:52.342Z,69.20
2018-02-27T02:55:19.895Z,69.30
2018-02-27T02:57:47.466Z,70.00
2018-02-27T03:00:15.019Z,69.50
2018-02-27T03:02:42.606Z,69.40
2018-02-27T03:05:10.176Z,69.40
2018-02-27T03:07:38.507Z,69.10
2018-02-27T03:10:06.102Z,69.10
2018-02-27T03:12:41.883Z,69.30
2018-02-27T03:15:09.476Z,69.40
2018-02-27T03:17:37.028Z,70.40
2018-02-27T03:20:04.574Z,70.20
2018-02-27T03:22:32.149Z,69.60
2018-02-27T03:24:59.722Z,69.40
2018-02-27T03:27:27.291Z,69.80
2018-02-27T03:29:54.844Z,70.30
2018-02-27T03:32:22.394Z,69.40
2018-02-27T03:34:49.972Z,68.50
2018-02-27T03:37:17.525Z,68.90
2018-02-27T03:39:45.855Z,69.50
2018-02-27T03:42:13.454Z,69.50
2018-02-27T03:44:41.035Z,70.10
2018-02-27T03:47:08.588Z,69.90
2018-02-27T03:49:36.183Z,69.70
2018-02-27T03:52:03.753Z,69.20
2018-02-27T03:54:31.322Z,69.50
2018-02-27T03:56:59.663Z,71.10
2018-02-27T03:59:34.735Z,71.10
2018-02-27T04:02:03.082Z,72.40
2018-02-27T04:04:30.639Z,72.40
2018-02-27T04:06:58.186Z,72.40
2018-02-27T04:09:25.844Z,73.10
2018-02-27T04:11:53.338Z,74.00
2018-02-27T04:14:20.929Z,75.00
2018-02-27T04:16:48.478Z,75.50
2018-02-27T04:19:16.796Z,75.80
2018-02-27T04:21:45.151Z,77.10
2018-02-27T04:24:12.708Z,76.30
2018-02-27T04:26:40.295Z,76.40
2018-02-27T04:29:07.881Z,75.10
2018-02-27T04:31:35.468Z,74.60
2018-02-27T04:34:03.036Z,74.80
2018-02-27T04:36:30.623Z,75.70
2018-02-27T04:39:02.939Z,74.80
2018-02-27T04:41:30.517Z,76.00
2018-02-27T04:43:58.839Z,75.00
2018-02-27T04:46:26.417Z,75.00
2018-02-27T04:48:53.987Z,74.70
2018-02-27T04:51:21.550Z,74.60
2018-02-27T04:53:49.133Z,74.40
2018-02-27T04:56:17.451Z,73.00
2018-02-27T04:58:45.008Z,73.00
2018-02-27T05:01:12.607Z,73.30
2018-02-27T05:03:40.180Z,73.20
2018-02-27T05:06:07.726Z,72.90
2018-02-27T05:08:35.317Z,72.90
2018-02-27T05:11:03.662Z,73.00
2018-02-27T05:13:31.250Z,73.00
2018-02-27T05:15:59.570Z,72.60
2018-02-27T05:18:27.126Z,72.60
2018-02-27T05:20:54.708Z,72.70
2018-02-27T05:23:22.259Z,73.10
2018-02-27T05:25:49.815Z,73.70
2018-02-27T05:28:17.390Z,73.60
2018-02-27T05:30:44.969Z,73.70
2018-02-27T05:33:12.536Z,74.20
2018-02-27T05:35:40.122Z,73.80
2018-02-27T05:38:08.437Z,74.00
2018-02-27T05:40:36.051Z,74.00
2018-02-27T05:43:04.376Z,74.20
2018-02-27T05:45:31.942Z,74.20
2018-02-27T05:47:59.514Z,73.30
2018-02-27T05:50:27.832Z,73.30
2018-02-27T05:52:56.186Z,73.80
2018-02-27T05:55:23.746Z,73.80
2018-02-27T05:57:51.310Z,74.00
2018-02-27T06:00:18.891Z,73.70
2018-02-27T06:02:47.214Z,73.60
2018-02-27T06:05:14.764Z,73.60
2018-02-27T06:07:42.339Z,73.40
2018-02-27T06:10:10.909Z,73.70
2018-02-27T06:12:38.473Z,73.50
2018-02-27T06:15:06.054Z,73.80
2018-02-27T06:17:33.598Z,73.80
2018-02-27T06:20:01.156Z,73.50
2018-02-27T06:22:28.747Z,73.50
2018-02-27T06:24:56.306Z,73.10
2018-02-27T06:27:23.858Z,72.80
2018-02-27T06:29:51.450Z,73.00
2018-02-27T06:32:19.007Z,72.30
2018-02-27T06:34:47.338Z,72.50
2018-02-27T06:37:14.921Z,72.40
2018-02-27T06:39:42.480Z,72.70
2018-02-27T06:42:10.048Z,72.50
2018-02-27T06:44:37.600Z,72.50
2018-02-27T06:47:05.179Z,71.60
2018-02-27T06:49:32.723Z,71.60
2018-02-27T06:52:00.300Z,71.30
2018-02-27T06:54:27.880Z,71.20
2018-02-27T06:56:56.212Z,70.00
2018-02-27T06:59:23.811Z,70.00
2018-02-27T07:01:52.139Z,69.60
2018-02-27T07:04:19.689Z,69.60
2018-02-27T07:06:47.276Z,69.40
2018-02-27T07:09:14.905Z,68.30
2018-02-27T07:11:42.476Z,69.30
2018-02-27T07:14:10.072Z,67.10
2018-02-27T07:16:37.659Z,67.10
2018-02-27T07:19:06.013Z,66.10
2018-02-27T07:21:33.574Z,66.00
2018-02-27T07:24:01.123Z,65.70
2018-02-27T07:26:28.719Z,65.30
2018-02-27T07:28:57.045Z,65.20
2018-02-27T07:31:24.603Z,65.10
2018-02-27T07:33:52.185Z,65.70
2018-02-27T07:36:19.743Z,65.00
2018-02-27T07:38:47.334Z,63.90
2018-02-27T07:41:15.643Z,63.50
2018-02-27T07:43:43.190Z,63.50
2018-02-27T07:46:10.793Z,63.20
2018-02-27T07:48:38.343Z,63.30
2018-02-27T07:51:05.899Z,63.70
2018-02-27T07:53:33.475Z,64.40
2018-02-27T07:56:01.031Z,64.30
2018-02-27T07:58:29.366Z,64.60
2018-02-27T08:00:56.956Z,64.60
2018-02-27T08:03:24.512Z,64.00
2018-02-27T08:05:52.116Z,63.20
2018-02-27T08:08:19.688Z,63.90
2018-02-27T08:10:48.009Z,63.00
2018-02-27T08:13:15.594Z,62.90
2018-02-27T08:15:43.147Z,63.00
2018-02-27T08:18:10.731Z,64.40
2018-02-27T08:20:38.301Z,63.80
2018-02-27T08:23:05.839Z,62.30
2018-02-27T08:25:33.421Z,62.00
2018-02-27T08:28:00.975Z,61.60
2018-02-27T08:30:28.572Z,61.90
2018-02-27T08:32:56.154Z,62.70
2018-02-27T08:35:23.698Z,61.30
2018-02-27T08:37:51.275Z,64.20
2018-02-27T08:40:18.826Z,61.60
2018-02-27T08:42:46.380Z,62.50
2018-02-27T08:45:13.967Z,60.00
2018-02-27T08:47:42.283Z,59.90
2018-02-27T08:50:10.618Z,59.60
2018-02-27T08:52:38.218Z,59.50
2018-02-27T08:55:05.771Z,59.00
2018-02-27T08:57:33.388Z,60.70
2018-02-27T09:00:01.054Z,60.50
2018-02-27T09:02:28.623Z,59.70
2018-02-27T09:04:56.967Z,58.50
2018-02-27T09:07:24.526Z,58.50
2018-02-27T09:09:52.107Z,58.60
2018-02-27T09:12:19.652Z,58.50
2018-02-27T09:14:47.211Z,59.00
2018-02-27T09:17:14.795Z,59.60
2018-02-27T09:19:42.352Z,59.40
2018-02-27T09:22:09.910Z,59.40
2018-02-27T09:24:37.503Z,58.60
2018-02-27T09:27:05.053Z,58.90
2018-02-27T09:29:32.614Z,58.90
2018-02-27T09:32:00.209Z,58.50
2018-02-27T09:34:27.776Z,58.10
2018-02-27T09:36:56.122Z,56.20
2018-02-27T09:39:23.676Z,56.20
2018-02-27T09:41:51.268Z,56.40
2018-02-27T09:44:19.619Z,55.70
2018-02-27T09:46:47.969Z,55.80
2018-02-27T09:49:15.529Z,55.80
2018-02-27T09:51:43.125Z,56.60
2018-02-27T09:54:10.682Z,56.50
2018-02-27T09:56:38.264Z,56.40
2018-02-27T09:59:06.588Z,54.30
2018-02-27T10:01:34.155Z,53.70
2018-02-27T10:04:01.751Z,54.20
2018-02-27T10:06:29.312Z,54.80
2018-02-27T10:08:56.902Z,54.70
2018-02-27T10:11:25.227Z,51.50
2018-02-27T10:13:52.916Z,51.60
2018-02-27T10:16:20.492Z,51.30
2018-02-27T10:18:48.820Z,52.60
2018-02-27T10:21:16.382Z,52.50
2018-02-27T10:23:44.068Z,52.00
2018-02-27T10:26:11.620Z,52.40
2018-02-27T10:28:39.312Z,51.10
2018-02-27T10:31:07.651Z,53.50
2018-02-27T10:33:35.319Z,53.50
2018-02-27T10:36:02.937Z,51.30
2018-02-27T10:38:30.505Z,50.20
2018-02-27T10:40:58.094Z,50.90
2018-02-27T10:43:25.658Z,50.90
2018-02-27T10:45:53.215Z,51.10
2018-02-27T10:48:20.801Z,52.00
2018-02-27T10:50:48.360Z,51.10
2018-02-27T10:53:15.923Z,49.50
2018-02-27T10:55:43.533Z,50.10
2018-02-27T10:58:11.873Z,51.30
2018-02-27T11:00:45.060Z,51.30
2018-02-27T11:03:12.603Z,50.50
2018-02-27T11:05:40.154Z,50.80
2018-02-27T11:08:07.740Z,51.50
2018-02-27T11:10:35.308Z,51.00
2018-02-27T11:13:03.663Z,51.60
2018-02-27T11:15:31.246Z,51.50
2018-02-27T11:17:59.566Z,51.30
2018-02-27T11:20:27.125Z,51.30
2018-02-27T11:22:54.822Z,51.30
2018-02-27T11:25:22.388Z,51.60
2018-02-27T11:27:49.972Z,52.10
2018-02-27T11:30:18.367Z,51.00
2018-02-27T11:32:46.430Z,51.00
2018-02-27T11:35:14.767Z,50.10
2018-02-27T11:37:42.328Z,50.10
2018-02-27T11:40:09.894Z,50.20
2018-02-27T11:42:37.484Z,50.50
2018-02-27T11:45:05.039Z,49.80
2018-02-27T11:47:33.397Z,49.10
2018-02-27T11:50:01.330Z,49.10
2018-02-27T11:52:28.883Z,49.10
2018-02-27T11:54:56.456Z,49.70
2018-02-27T11:57:24.074Z,48.20
2018-02-27T11:59:51.646Z,47.30
2018-02-27T12:02:19.200Z,47.20
2018-02-27T12:04:46.801Z,47.40
2018-02-27T12:07:14.358Z,47.20
2018-02-27T12:09:41.922Z,48.00
2018-02-27T12:12:09.499Z,47.20
2018-02-27T12:14:37.051Z,46.60
2018-02-27T12:17:05.545Z,46.80
2018-02-27T12:19:33.902Z,47.10
2018-02-27T12:22:01.442Z,46.90
2018-02-27T12:24:29.011Z,47.10
2018-02-27T12:26:56.590Z,47.00
2018-02-27T12:29:24.167Z,46.10
2018-02-27T12:31:52.538Z,45.00
2018-02-27T12:34:20.086Z,45.00
2018-02-27T12:36:47.661Z,45.20
2018-02-27T12:39:15.240Z,45.90
2018-02-27T12:41:42.783Z,45.00
2018-02-27T12:44:10.344Z,44.50
2018-02-27T12:46:37.924Z,44.80
2018-02-27T12:49:05.497Z,44.80
2018-02-27T12:51:33.870Z,44.50
2018-02-27T12:54:02.226Z,44.40
2018-02-27T12:56:29.770Z,44.40
2018-02-27T12:58:57.399Z,44.20
2018-02-27T13:01:24.984Z,45.10
2018-02-27T13:03:52.538Z,45.00
2018-02-27T13:06:20.121Z,46.10
2018-02-27T13:08:47.702Z,45.70
2018-02-27T13:11:15.283Z,46.10
2018-02-27T13:13:43.637Z,46.50
2018-02-27T13:16:11.192Z,46.40
2018-02-27T13:18:38.764Z,46.70
2018-02-27T13:21:06.311Z,45.80
2018-02-27T13:23:37.854Z,45.20
2018-02-27T13:26:05.426Z,45.30
2018-02-27T13:28:32.982Z,45.20
2018-02-27T13:31:00.601Z,45.60
2018-02-27T13:33:28.138Z,45.00
2018-02-27T13:35:56.470Z,43.20
2018-02-27T13:38:24.055Z,43.20
2018-02-27T13:40:51.595Z,44.10
2018-02-27T13:43:19.167Z,43.00
2018-02-27T13:45:46.761Z,42.30
2018-02-27T13:48:15.079Z,42.50
2018-02-27T13:50:42.638Z,42.50
2018-02-27T13:53:10.314Z,42.50
2018-02-27T13:55:37.875Z,42.80
2018-02-27T13:58:05.545Z,42.90
2018-02-27T14:00:33.136Z,42.60
2018-02-27T14:03:00.745Z,42.80
2018-02-27T14:05:28.418Z,43.60
2018-02-27T14:07:56.002Z,44.10
2018-02-27T14:10:23.582Z,45.00
2018-02-27T14:12:51.926Z,45.00
2018-02-27T14:15:20.472Z,44.90
2018-02-27T14:17:48.043Z,43.40
2018-02-27T14:20:15.650Z,43.80
2018-02-27T14:23:01.769Z,42.10
2018-02-27T14:25:29.327Z,42.80
2018-02-27T14:27:56.882Z,43.00
2018-02-27T14:30:25.234Z,44.90
2018-02-27T14:32:52.783Z,44.90
2018-02-27T14:35:20.342Z,46.00
2018-02-27T14:37:47.935Z,45.60
2018-02-27T14:40:16.246Z,44.50
2018-02-27T14:42:43.832Z,44.40
2018-02-27T14:45:11.408Z,43.20
2018-02-27T14:47:39.022Z,43.10
2018-02-27T14:50:06.621Z,43.20
2018-02-27T14:52:34.183Z,44.20
2018-02-27T14:55:01.753Z,44.30
2018-02-27T14:57:29.307Z,44.80
2018-02-27T14:59:56.928Z,44.80
2018-02-27T15:02:24.505Z,44.80
2018-02-27T15:04:52.055Z,45.00
2018-02-27T15:07:19.637Z,45.30
2018-02-27T15:09:47.945Z,44.50
2018-02-27T15:12:16.084Z,44.50
2018-02-27T15:14:43.687Z,44.60
2018-02-27T15:17:14.035Z,43.30
2018-02-27T15:19:41.581Z,43.30
2018-02-27T15:22:10.623Z,44.50
2018-02-27T15:24:38.193Z,44.40
2018-02-27T15:27:05.771Z,44.60
2018-02-27T15:29:34.868Z,44.90
2018-02-27T15:32:02.424Z,44.40
2018-02-27T15:34:29.998Z,44.50
2018-02-27T15:36:57.562Z,44.70
2018-02-27T15:39:27.112Z,44.70
2018-02-27T15:41:54.690Z,46.30
2018-02-27T15:44:22.272Z,45.40
2018-02-27T15:46:50.611Z,45.40
2018-02-27T15:49:18.226Z,45.40
2018-02-27T15:51:45.771Z,45.10
2018-02-27T15:54:13.397Z,44.80
2018-02-27T15:56:40.983Z,45.30
2018-02-27T15:59:08.536Z,45.10
2018-02-27T16:01:36.111Z,45.90
2018-02-27T16:04:06.935Z,45.30
2018-02-27T16:06:34.479Z,46.10
2018-02-27T16:09:02.082Z,46.20
2018-02-27T16:11:29.636Z,44.40
2018-02-27T16:13:57.187Z,44.50
2018-02-27T16:16:24.789Z,44.80
2018-02-27T16:18:52.362Z,45.00
2018-02-27T16:21:19.937Z,45.20
2018-02-27T16:23:47.523Z,45.50
2018-02-27T16:26:15.088Z,45.20
2018-02-27T16:28:42.647Z,45.70
2018-02-27T16:31:10.286Z,46.10
2018-02-27T16:33:37.838Z,46.90
2018-02-27T16:36:05.437Z,47.10
2018-02-27T16:38:33.922Z,47.00
2018-02-27T16:41:02.254Z,46.50
2018-02-27T16:43:29.826Z,46.40
2018-02-27T16:45:57.392Z,46.80
2018-02-27T16:48:38.415Z,47.00
2018-02-27T16:51:21.108Z,46.60
2018-02-27T16:53:49.719Z,46.90
2018-02-27T16:56:34.991Z,47.60
2018-02-27T16:59:04.305Z,47.20
2018-02-27T17:01:32.691Z,47.50
2018-02-27T17:04:01.021Z,47.70
2018-02-27T17:06:28.635Z,47.70
2018-02-27T17:08:56.515Z,47.70
2018-02-27T17:11:24.338Z,47.80
2018-02-27T17:13:51.928Z,48.10
2018-02-27T17:16:19.500Z,48.10
2018-02-27T17:18:47.096Z,48.40
2018-02-27T17:21:14.643Z,48.20
2018-02-27T17:23:42.195Z,48.50
2018-02-27T17:26:09.775Z,48.80
2018-02-27T17:28:37.325Z,48.90
2018-02-27T17:31:04.883Z,49.30
2018-02-27T17:33:32.453Z,48.90
2018-02-27T17:36:00.004Z,48.90
2018-02-27T17:38:27.561Z,49.10
2018-02-27T17:40:55.180Z,49.30
2018-02-27T17:43:22.758Z,49.60
2018-02-27T17:45:53.585Z,49.40
2018-02-27T17:48:22.924Z,49.60
2018-02-27T17:50:50.553Z,49.70
2018-02-27T17:53:18.142Z,50.00
2018-02-27T17:55:45.727Z,49.70
2018-02-27T17:58:16.254Z,49.70
2018-02-27T18:00:43.853Z,50.50
2018-02-27T18:03:11.406Z,50.20
2018-02-27T18:05:39.729Z,50.80
2018-02-27T18:08:09.251Z,50.70
2018-02-27T18:10:36.806Z,50.50
2018-02-27T18:13:04.372Z,50.40
2018-02-27T18:15:31.945Z,50.60
2018-02-27T18:17:59.503Z,50.90
2018-02-27T18:20:27.121Z,51.00
2018-02-27T18:22:54.682Z,50.90
2018-02-27T18:25:22.234Z,51.10
2018-02-27T18:27:49.827Z,51.20
2018-02-27T18:30:17.379Z,51.30
2018-02-27T18:32:44.949Z,51.30
2018-02-27T18:35:12.504Z,51.60
2018-02-27T18:37:40.070Z,51.50
2018-02-27T18:40:07.662Z,51.50
2018-02-27T18:42:35.218Z,51.80
2018-02-27T18:45:02.776Z,51.10
2018-02-27T18:47:30.367Z,51.70
2018-02-27T18:49:58.694Z,52.00
2018-02-27T18:52:26.240Z,52.00
2018-02-27T18:54:53.847Z,52.50
2018-02-27T18:57:21.400Z,52.80
2018-02-27T18:59:48.990Z,53.10
2018-02-27T19:02:16.545Z,52.60
2018-02-27T19:04:44.881Z,53.10
2018-02-27T19:07:12.472Z,53.10
2018-02-27T19:09:40.058Z,53.80
2018-02-27T19:12:07.660Z,54.90
2018-02-27T19:14:35.252Z,54.60
2018-02-27T19:17:03.583Z,56.80
2018-02-27T19:19:31.153Z,56.70
2018-02-27T19:21:58.744Z,57.20
2018-02-27T19:24:26.306Z,57.90
2018-02-27T19:26:57.602Z,57.70
2018-02-27T19:29:25.150Z,56.30
2018-02-27T19:31:52.702Z,56.30
2018-02-27T19:34:20.821Z,56.20
2018-02-27T19:36:48.431Z,56.10
2018-02-27T19:39:16.786Z,56.40
2018-02-27T19:41:44.355Z,56.30
2018-02-27T19:44:13.726Z,56.40
2018-02-27T19:46:41.319Z,56.40
2018-02-27T19:49:09.628Z,57.10
2018-02-27T19:51:37.224Z,57.10
2018-02-27T19:54:04.800Z,57.10
2018-02-27T19:56:32.364Z,57.40
2018-02-27T19:59:01.855Z,58.30
2018-02-27T20:01:29.460Z,58.70
2018-02-27T20:03:57.011Z,58.80
2018-02-27T20:06:25.321Z,59.90
2018-02-27T20:08:52.910Z,59.90
2018-02-27T20:11:20.467Z,59.50
2018-02-27T20:13:55.386Z,59.90
2018-02-27T20:16:22.947Z,60.20
2018-02-27T20:18:50.522Z,60.60
2018-02-27T20:21:18.139Z,60.40
2018-02-27T20:23:51.389Z,60.50
2018-02-27T20:26:18.982Z,60.20
2018-02-27T20:28:52.194Z,61.30
2018-02-27T20:31:19.781Z,61.60
2018-02-27T20:33:47.343Z,64.20
2018-02-27T20:36:14.904Z,64.90
2018-02-27T20:38:54.018Z,65.90
2018-02-27T20:41:21.639Z,66.20
2018-02-27T20:43:49.196Z,64.80
2018-02-27T20:46:16.768Z,64.70
2018-02-27T20:48:45.098Z,64.70
2018-02-27T20:51:12.672Z,64.60
2018-02-27T20:53:40.259Z,64.30
2018-02-27T20:56:08.588Z,66.00
2018-02-27T20:58:36.183Z,66.00
2018-02-27T21:01:03.763Z,67.00
2018-02-27T21:03:32.080Z,68.00
2018-02-27T21:05:59.644Z,67.40
2018-02-27T21:08:27.287Z,67.50
2018-02-27T21:10:54.840Z,67.60
2018-02-27T21:13:22.391Z,67.90
2018-02-27T21:15:50.741Z,67.50
2018-02-27T21:18:19.303Z,67.40
2018-02-27T21:20:46.891Z,67.60
2018-02-27T21:23:14.430Z,67.70
2018-02-27T21:25:42.081Z,68.80
2018-02-27T21:28:09.675Z,68.80
2018-02-27T21:30:37.227Z,69.00
2018-02-27T21:33:04.775Z,69.40
2018-02-27T21:35:32.378Z,70.30
2018-02-27T21:38:00.685Z,71.30
2018-02-27T21:40:28.252Z,71.30
2018-02-27T21:42:55.823Z,72.20
2018-02-27T21:45:23.367Z,71.60
2018-02-27T21:47:50.940Z,72.80
2018-02-27T21:50:18.490Z,72.10
2018-02-27T21:52:46.059Z,72.00
2018-02-27T21:55:13.638Z,71.50
2018-02-27T21:57:41.190Z,71.70
2018-02-27T22:00:08.757Z,71.70
2018-02-27T22:02:36.378Z,71.60
2018-02-27T22:05:03.938Z,71.50
2018-02-27T22:07:31.494Z,71.90
2018-02-27T22:09:59.068Z,72.20
2018-02-27T22:12:26.619Z,72.20
2018-02-27T22:14:54.225Z,73.40
2018-02-27T22:17:21.778Z,73.00
2018-02-27T22:19:49.345Z,73.10
2018-02-27T22:22:16.926Z,72.90
2018-02-27T22:24:45.253Z,74.00
2018-02-27T22:27:12.805Z,74.00
2018-02-27T22:29:40.372Z,73.50
2018-02-27T22:32:07.929Z,73.80
2018-02-27T22:34:35.511Z,75.00
2018-02-27T22:42:48.883Z,75.50
2018-02-27T22:45:16.476Z,74.90
2018-02-27T22:47:44.796Z,76.40
2018-02-27T22:50:12.346Z,76.30
2018-02-27T22:52:39.994Z,77.00
2018-02-27T22:55:07.635Z,77.30
2018-02-27T22:57:36.126Z,76.20
2018-02-27T23:00:04.544Z,77.10
2018-02-27T23:02:32.375Z,77.10
2018-02-27T23:05:00.082Z,76.80
2018-02-27T23:07:28.484Z,78.40
2018-02-27T23:09:56.249Z,78.30
2018-02-27T23:12:23.913Z,77.90
2018-02-27T23:14:51.597Z,77.60
2018-02-27T23:17:19.230Z,77.80
2018-02-27T23:19:46.787Z,78.40
2018-02-27T23:22:14.346Z,79.60
2018-02-27T23:24:57.558Z,81.10
2018-02-27T23:27:26.707Z,80.50
2018-02-27T23:30:06.598Z,81.60
2018-02-27T23:32:35.870Z,81.50
2018-02-27T23:35:13.079Z,79.80
2018-02-27T23:37:40.636Z,80.10
2018-02-27T23:40:08.190Z,80.50
2018-02-27T23:42:35.772Z,81.50
2018-02-27T23:45:03.322Z,80.80
2018-02-27T23:47:30.923Z,79.80
2018-02-27T23:49:59.342Z,80.40
2018-02-27T23:52:26.906Z,80.50
2018-02-27T23:54:54.474Z,80.20
2018-02-27T23:57:22.049Z,80.30
2018-02-27T23:59:49.611Z,80.50
